createdAt,value
2022-09-05T00:01:02.000Z,70.3
2022-09-05T00:02:18.000Z,70.2
2022-09-05T00:03:35.000Z,70.2
2022-09-05T00:04:51.000Z,70.3
2022-09-05T00:06:07.000Z,70.3
2022-09-05T00:07:23.000Z,70.7
2022-09-05T00:08:39.000Z,70.9
2022-09-05T00:09:56.000Z,71.4
2022-09-05T00:11:11.000Z,71.7
2022-09-05T00:12:27.000Z,71.7
2022-09-05T00:13:43.000Z,71.8
2022-09-05T00:14:59.000Z,71.9
2022-09-05T00:16:15.000Z,72.4
2022-09-05T00:17:32.000Z,72.4
2022-09-05T00:18:48.000Z,72.6
2022-09-05T00:20:04.000Z,72.6
2022-09-05T00:21:20.000Z,72.8
2022-09-05T00:22:36.000Z,72.5
2022-09-05T00:23:53.000Z,72.9
2022-09-05T00:25:09.000Z,73
2022-09-05T00:26:25.000Z,73.3
2022-09-05T00:27:40.000Z,73.5
2022-09-05T00:28:56.000Z,73.2
2022-09-05T00:30:13.000Z,73.4
2022-09-05T00:31:29.000Z,74
2022-09-05T00:32:45.000Z,74
2022-09-05T00:34:01.000Z,74
2022-09-05T00:35:17.000Z,74
2022-09-05T00:36:33.000Z,74.3
2022-09-05T00:37:50.000Z,74.2
2022-09-05T00:39:06.000Z,74.4
2022-09-05T00:40:22.000Z,74.3
2022-09-05T00:41:38.000Z,74.6
2022-09-05T00:42:54.000Z,74.6
2022-09-05T00:44:10.000Z,74.6
2022-09-05T00:45:26.000Z,74.7
2022-09-05T00:46:42.000Z,74.7
2022-09-05T00:47:58.000Z,74.8
2022-09-05T00:49:14.000Z,74.9
2022-09-05T00:50:31.000Z,75
2022-09-05T00:51:47.000Z,75.2
2022-09-05T00:53:03.000Z,74.9
2022-09-05T00:54:19.000Z,74.6
2022-09-05T00:55:35.000Z,74.7
2022-09-05T00:56:52.000Z,74.3
2022-09-05T00:58:08.000Z,74.4
2022-09-05T00:59:24.000Z,74.5
2022-09-05T01:00:39.000Z,74.6
2022-09-05T01:01:55.000Z,74.6
2022-09-05T01:03:11.000Z,74.7
2022-09-05T01:04:28.000Z,74.6
2022-09-05T01:05:44.000Z,74.7
2022-09-05T01:07:00.000Z,74.6
2022-09-05T01:08:16.000Z,74.7
2022-09-05T01:09:32.000Z,74.6
2022-09-05T01:10:49.000Z,74.8
2022-09-05T01:12:05.000Z,74.8
2022-09-05T01:13:21.000Z,75.3
2022-09-05T01:14:37.000Z,75.5
2022-09-05T01:15:53.000Z,75.6
2022-09-05T01:17:09.000Z,75.8
2022-09-05T01:18:25.000Z,75.9
2022-09-05T01:19:41.000Z,76
2022-09-05T01:20:57.000Z,75.8
2022-09-05T01:22:13.000Z,76.2
2022-09-05T01:23:30.000Z,76.5
2022-09-05T01:24:46.000Z,76.6
2022-09-05T01:26:02.000Z,76.7
2022-09-05T01:27:18.000Z,76.8
2022-09-05T01:28:34.000Z,76.7
2022-09-05T01:29:50.000Z,76.5
2022-09-05T01:31:07.000Z,76.3
2022-09-05T01:32:23.000Z,76.1
2022-09-05T01:33:38.000Z,76.1
2022-09-05T01:34:54.000Z,75.9
2022-09-05T01:36:10.000Z,76
2022-09-05T01:37:27.000Z,76
2022-09-05T01:38:43.000Z,75.9
2022-09-05T01:39:59.000Z,75.9
2022-09-05T01:41:15.000Z,76
2022-09-05T01:42:31.000Z,76
2022-09-05T01:43:48.000Z,76.5
2022-09-05T01:45:04.000Z,76.5
2022-09-05T01:46:20.000Z,76.2
2022-09-05T01:47:36.000Z,76.4
2022-09-05T01:48:52.000Z,76.3
2022-09-05T01:50:07.000Z,76.5
2022-09-05T01:51:24.000Z,76.5
2022-09-05T01:52:40.000Z,76.6
2022-09-05T01:53:56.000Z,76.7
2022-09-05T01:55:12.000Z,76.7
2022-09-05T01:56:28.000Z,76.8
2022-09-05T01:57:45.000Z,76.8
2022-09-05T01:59:01.000Z,76.7
2022-09-05T02:00:17.000Z,76.9
2022-09-05T02:01:33.000Z,76.9
2022-09-05T02:02:49.000Z,77
2022-09-05T02:04:06.000Z,77.1
2022-09-05T02:05:22.000Z,77.2
2022-09-05T02:06:37.000Z,77.3
2022-09-05T02:07:53.000Z,77.3
2022-09-05T02:09:09.000Z,77.5
2022-09-05T02:10:26.000Z,77.6
2022-09-05T02:11:42.000Z,77.6
2022-09-05T02:12:58.000Z,77.8
2022-09-05T02:14:14.000Z,77.8
2022-09-05T02:15:30.000Z,77.9
2022-09-05T02:16:46.000Z,77.9
2022-09-05T02:18:03.000Z,78
2022-09-05T02:19:19.000Z,78.1
2022-09-05T02:20:35.000Z,78.1
2022-09-05T02:21:51.000Z,78.2
2022-09-05T02:23:06.000Z,78.3
2022-09-05T02:24:23.000Z,78.6
2022-09-05T02:25:39.000Z,78.6
2022-09-05T02:26:55.000Z,78.8
2022-09-05T02:28:10.000Z,79
2022-09-05T02:29:26.000Z,79.3
2022-09-05T02:30:43.000Z,79.3
2022-09-05T02:31:59.000Z,79.4
2022-09-05T02:33:15.000Z,79.3
2022-09-05T02:34:31.000Z,79.3
2022-09-05T02:35:47.000Z,79.3
2022-09-05T02:37:04.000Z,79.5
2022-09-05T02:38:20.000Z,79.7
2022-09-05T02:39:36.000Z,79.9
2022-09-05T02:40:52.000Z,79.9
2022-09-05T02:42:08.000Z,79.8
2022-09-05T02:43:24.000Z,79.8
2022-09-05T02:44:40.000Z,79.9
2022-09-05T02:45:56.000Z,79.8
2022-09-05T02:47:12.000Z,79.8
2022-09-05T02:48:28.000Z,79.7
2022-09-05T02:49:44.000Z,79.8
2022-09-05T02:51:01.000Z,79.7
2022-09-05T02:52:17.000Z,79.9
2022-09-05T02:53:33.000Z,80
2022-09-05T02:54:49.000Z,80
2022-09-05T02:56:05.000Z,80
2022-09-05T02:57:22.000Z,80
2022-09-05T02:58:38.000Z,79.9
2022-09-05T02:59:54.000Z,79.9
2022-09-05T03:01:09.000Z,79.9
2022-09-05T03:02:25.000Z,80
2022-09-05T03:03:42.000Z,80
2022-09-05T03:04:58.000Z,80
2022-09-05T03:06:14.000Z,80.1
2022-09-05T03:07:30.000Z,80.2
2022-09-05T03:08:46.000Z,80.3
2022-09-05T03:10:03.179Z,80.3
2022-09-05T03:11:19.000Z,80.3
2022-09-05T03:12:35.000Z,80.3
2022-09-05T03:13:51.000Z,80.2
2022-09-05T03:15:07.000Z,80.2
2022-09-05T03:16:23.000Z,80.2
2022-09-05T03:17:39.000Z,80.4
2022-09-05T03:18:55.000Z,80.5
2022-09-05T03:20:11.000Z,80.5
2022-09-05T03:21:27.000Z,80.7
2022-09-05T03:22:43.000Z,80.8
2022-09-05T03:24:00.000Z,81
2022-09-05T03:25:16.000Z,81.2
2022-09-05T03:26:32.000Z,81.2
2022-09-05T03:27:48.000Z,81.2
2022-09-05T03:29:04.000Z,81.2
2022-09-05T03:30:20.000Z,81.2
2022-09-05T03:31:37.000Z,81.2
2022-09-05T03:32:53.000Z,81.3
2022-09-05T03:34:08.000Z,81.3
2022-09-05T03:35:24.000Z,81.4
2022-09-05T03:36:40.000Z,81.4
2022-09-05T03:37:57.000Z,81.5
2022-09-05T03:39:13.000Z,81.6
2022-09-05T03:40:29.000Z,81.7
2022-09-05T03:41:45.000Z,81.8
2022-09-05T03:43:01.000Z,81.9
2022-09-05T03:44:18.000Z,82
2022-09-05T03:45:34.000Z,82.3
2022-09-05T03:46:50.000Z,82.3
2022-09-05T03:48:06.000Z,82.5
2022-09-05T03:49:22.000Z,82.7
2022-09-05T03:50:38.000Z,82.7
2022-09-05T03:51:54.000Z,82.7
2022-09-05T03:53:10.000Z,82.7
2022-09-05T03:54:26.000Z,82.8
2022-09-05T03:55:42.000Z,82.9
2022-09-05T03:56:58.000Z,82.9
2022-09-05T03:58:15.000Z,82.8
2022-09-05T03:59:31.000Z,82.8
2022-09-05T04:00:47.000Z,82.7
2022-09-05T04:02:03.000Z,82.7
2022-09-05T04:03:19.000Z,82.6
2022-09-05T04:04:36.000Z,82.7
2022-09-05T04:05:52.000Z,82.9
2022-09-05T04:07:07.000Z,82.9
2022-09-05T04:08:23.000Z,83
2022-09-05T04:09:39.000Z,82.9
2022-09-05T04:10:56.000Z,82.9
2022-09-05T04:12:12.000Z,82.8
2022-09-05T04:13:28.000Z,83
2022-09-05T04:14:44.000Z,83.2
2022-09-05T04:16:00.000Z,83.5
2022-09-05T04:17:17.000Z,83.5
2022-09-05T04:18:33.000Z,83.6
2022-09-05T04:19:49.000Z,84
2022-09-05T04:21:05.000Z,84
2022-09-05T04:22:21.000Z,84.2
2022-09-05T04:23:36.000Z,84.3
2022-09-05T04:24:53.000Z,84.5
2022-09-05T04:26:09.000Z,84.6
2022-09-05T04:27:25.000Z,84.8
2022-09-05T04:28:41.000Z,85
2022-09-05T04:29:57.000Z,85.1
2022-09-05T04:31:14.000Z,85.2
2022-09-05T04:32:30.000Z,85.2
2022-09-05T04:33:46.000Z,85.2
2022-09-05T04:35:02.000Z,85.2
2022-09-05T04:36:18.000Z,85.3
2022-09-05T04:37:35.000Z,85.6
2022-09-05T04:38:51.000Z,85.5
2022-09-05T04:40:06.000Z,85.6
2022-09-05T04:41:22.000Z,85.6
2022-09-05T04:42:38.000Z,85.8
2022-09-05T04:43:55.000Z,86
2022-09-05T04:45:11.000Z,86
2022-09-05T04:46:27.000Z,86.1
2022-09-05T04:47:43.000Z,86.1
2022-09-05T04:48:59.000Z,86.3
2022-09-05T04:50:15.000Z,86.5
2022-09-05T04:51:32.000Z,86.6
2022-09-05T04:52:48.000Z,86.8
2022-09-05T04:54:04.000Z,86.8
2022-09-05T04:55:20.000Z,86.7
2022-09-05T04:56:35.000Z,86.9
2022-09-05T04:57:52.000Z,87
2022-09-05T04:59:08.000Z,87
2022-09-05T05:00:24.000Z,87.1
2022-09-05T05:01:40.000Z,87.1
2022-09-05T05:02:56.000Z,86.9
2022-09-05T05:04:13.000Z,86.9
2022-09-05T05:05:29.000Z,86.9
2022-09-05T05:06:45.000Z,87
2022-09-05T05:08:01.000Z,87
2022-09-05T05:09:17.000Z,86.8
2022-09-05T05:10:33.000Z,86.5
2022-09-05T05:11:50.000Z,86.2
2022-09-05T05:13:05.000Z,86.1
2022-09-05T05:14:21.000Z,85.7
2022-09-05T05:15:37.000Z,85.6
2022-09-05T05:16:53.000Z,85.4
2022-09-05T05:18:10.000Z,85.1
2022-09-05T05:19:26.000Z,85
2022-09-05T05:20:42.000Z,85
2022-09-05T05:21:58.000Z,84.7
2022-09-05T05:23:14.000Z,84.5
2022-09-05T05:24:31.000Z,83.9
2022-09-05T05:25:47.000Z,83.4
2022-09-05T05:27:03.000Z,83
2022-09-05T05:28:19.000Z,83
2022-09-05T05:29:34.000Z,83
2022-09-05T05:30:51.000Z,83.2
2022-09-05T05:32:07.000Z,83.3
2022-09-05T05:33:23.000Z,83.5
2022-09-05T05:34:39.000Z,83.6
2022-09-05T05:35:55.000Z,83.6
2022-09-05T05:37:11.000Z,83.8
2022-09-05T05:38:28.000Z,83.8
2022-09-05T05:39:44.000Z,83.8
2022-09-05T05:41:00.000Z,83.7
2022-09-05T05:42:16.000Z,83.5
2022-09-05T05:43:32.000Z,83.4
2022-09-05T05:44:49.000Z,83.3
2022-09-05T05:46:04.000Z,83.3
2022-09-05T05:47:20.000Z,83.3
2022-09-05T05:48:36.000Z,83.2
2022-09-05T05:49:52.000Z,83.2
2022-09-05T05:51:09.000Z,83.1
2022-09-05T05:52:25.000Z,83.1
2022-09-05T05:53:41.000Z,83
2022-09-05T05:54:57.000Z,82.8
2022-09-05T05:56:13.000Z,82.8
2022-09-05T05:57:30.000Z,82.8
2022-09-05T05:58:46.000Z,82.8
2022-09-05T06:00:02.000Z,82.7
2022-09-05T06:01:18.000Z,82.7
2022-09-05T06:02:33.000Z,82.6
2022-09-05T06:03:49.000Z,82.6
2022-09-05T06:05:06.000Z,82.5
2022-09-05T06:06:22.000Z,82.6
2022-09-05T06:07:38.000Z,82.8
2022-09-05T06:08:54.000Z,82.9
2022-09-05T06:10:10.000Z,82.9
2022-09-05T06:11:27.000Z,82.7
2022-09-05T06:12:43.000Z,82.5
2022-09-05T06:13:59.000Z,82.4
2022-09-05T06:15:15.000Z,82.2
2022-09-05T06:16:31.000Z,82
2022-09-05T06:17:48.000Z,81.5
2022-09-05T06:19:04.000Z,81
2022-09-05T06:20:19.000Z,79.7
2022-09-05T06:21:35.000Z,78.6
2022-09-05T06:22:51.000Z,77.6
2022-09-05T06:24:08.000Z,77.2
2022-09-05T06:25:24.000Z,76.9
2022-09-05T06:26:40.000Z,76.9
2022-09-05T06:27:56.000Z,76.5
2022-09-05T06:29:12.000Z,76.8
2022-09-05T06:30:28.000Z,76.5
2022-09-05T06:31:45.000Z,75.6
2022-09-05T06:33:01.000Z,75.6
2022-09-05T06:34:17.000Z,76
2022-09-05T06:35:33.000Z,75.5
2022-09-05T06:36:48.000Z,74.7
2022-09-05T06:38:05.000Z,73.6
2022-09-05T06:39:21.000Z,72.5
2022-09-05T06:40:37.000Z,70.8
2022-09-05T06:41:53.000Z,69.6
2022-09-05T06:43:08.000Z,68.7
2022-09-05T06:44:25.000Z,69.1
2022-09-05T06:45:41.000Z,69.8
2022-09-05T06:46:57.000Z,70
2022-09-05T06:48:13.000Z,70.3
2022-09-05T06:49:29.000Z,70.7
2022-09-05T06:50:45.000Z,70.6
2022-09-05T06:52:02.000Z,70.1
2022-09-05T06:53:18.000Z,69.8
2022-09-05T06:54:34.000Z,68.5
2022-09-05T06:55:50.000Z,68.4
2022-09-05T06:57:06.000Z,68.7
2022-09-05T06:58:23.000Z,69.3
2022-09-05T06:59:38.000Z,69.7
2022-09-05T07:00:54.000Z,70.5
2022-09-05T07:02:10.000Z,71
2022-09-05T07:03:26.000Z,71.4
2022-09-05T07:04:43.000Z,71.2
2022-09-05T07:05:59.000Z,71.8
2022-09-05T07:07:15.000Z,71.6
2022-09-05T07:08:31.000Z,71.7
2022-09-05T07:09:47.000Z,71.1
2022-09-05T07:11:04.000Z,69.6
2022-09-05T07:12:20.000Z,68
2022-09-05T07:13:36.000Z,65.8
2022-09-05T07:14:52.000Z,64.5
2022-09-05T07:16:07.000Z,65
2022-09-05T07:17:23.000Z,65.2
2022-09-05T07:18:40.000Z,65.5
2022-09-05T07:19:56.000Z,65.8
2022-09-05T07:21:12.000Z,66.5
2022-09-05T07:22:28.000Z,67
2022-09-05T07:23:44.000Z,67.3
2022-09-05T07:25:01.000Z,67.8
2022-09-05T07:26:17.000Z,68.3
2022-09-05T07:27:33.000Z,68.4
2022-09-05T07:28:49.000Z,68.6
2022-09-05T07:30:05.000Z,68.9
2022-09-05T07:31:22.000Z,69.4
2022-09-05T07:32:38.000Z,69.5
2022-09-05T07:33:53.000Z,70
2022-09-05T07:35:09.000Z,70
2022-09-05T07:36:25.000Z,69.7
2022-09-05T07:37:42.000Z,69.6
2022-09-05T07:38:58.000Z,69.7
2022-09-05T07:40:14.000Z,69.4
2022-09-05T07:41:30.000Z,69.4
2022-09-05T07:42:46.000Z,69.2
2022-09-05T07:44:02.000Z,69
2022-09-05T07:45:19.000Z,68.6
2022-09-05T07:46:35.000Z,68.3
2022-09-05T07:47:51.000Z,68.2
2022-09-05T07:49:07.000Z,67.9
2022-09-05T07:50:22.000Z,67.7
2022-09-05T07:51:39.000Z,67.5
2022-09-05T07:52:55.000Z,67.5
2022-09-05T07:54:11.000Z,67.6
2022-09-05T07:55:27.000Z,67.5
2022-09-05T07:56:43.000Z,67.7
2022-09-05T07:58:00.000Z,67.8
2022-09-05T07:59:16.000Z,67.7
2022-09-05T08:00:32.000Z,67.1
2022-09-05T08:01:48.000Z,66.6
2022-09-05T08:03:04.000Z,66.4
2022-09-05T08:04:21.000Z,66.2
2022-09-05T08:05:37.000Z,66.2
2022-09-05T08:06:52.000Z,65.9
2022-09-05T08:08:08.000Z,65.4
2022-09-05T08:09:24.000Z,65.2
2022-09-05T08:10:40.000Z,64.7
2022-09-05T08:11:57.000Z,63.8
2022-09-05T08:13:13.000Z,62.7
2022-09-05T08:14:29.000Z,62.9
2022-09-05T08:15:45.000Z,62.6
2022-09-05T08:17:01.000Z,62
2022-09-05T08:18:18.000Z,61.5
2022-09-05T08:19:34.000Z,60.8
2022-09-05T08:20:50.000Z,60.5
2022-09-05T08:22:06.000Z,60.5
2022-09-05T08:23:21.000Z,60.1
2022-09-05T08:24:38.000Z,60.2
2022-09-05T08:25:54.000Z,60.3
2022-09-05T08:27:10.000Z,59.8
2022-09-05T08:28:26.000Z,60
2022-09-05T08:29:42.000Z,59.6
2022-09-05T08:30:58.000Z,59.6
2022-09-05T08:32:15.000Z,59.3
2022-09-05T08:33:31.000Z,58.9
2022-09-05T08:34:47.000Z,59.4
2022-09-05T08:36:03.000Z,59.6
2022-09-05T08:37:19.000Z,59.3
2022-09-05T08:38:36.000Z,59.1
2022-09-05T08:39:51.000Z,58.9
2022-09-05T08:41:07.000Z,58.6
2022-09-05T08:42:23.000Z,57.6
2022-09-05T08:43:39.000Z,57.6
2022-09-05T08:44:56.000Z,58.2
2022-09-05T08:46:12.000Z,57.2
2022-09-05T08:47:28.000Z,57.1
2022-09-05T08:48:44.000Z,57.6
2022-09-05T08:50:00.000Z,58.1
2022-09-05T08:51:17.000Z,57.7
2022-09-05T08:52:33.000Z,57.7
2022-09-05T08:53:49.000Z,57.2
2022-09-05T08:55:05.000Z,57.2
2022-09-05T08:56:20.000Z,56.7
2022-09-05T08:57:36.000Z,57
2022-09-05T08:58:53.000Z,57.1
2022-09-05T09:00:09.000Z,56.8
2022-09-05T09:01:25.000Z,56.4
2022-09-05T09:02:41.000Z,56.2
2022-09-05T09:03:57.000Z,55.8
2022-09-05T09:05:14.000Z,55.3
2022-09-05T09:06:30.000Z,54.7
2022-09-05T09:07:46.000Z,54.8
2022-09-05T09:09:02.000Z,53.8
2022-09-05T09:10:18.000Z,54
2022-09-05T09:11:35.000Z,54.1
2022-09-05T09:12:51.000Z,53.8
2022-09-05T09:14:06.000Z,53.6
2022-09-05T09:15:22.000Z,53.4
2022-09-05T09:16:38.000Z,53.9
2022-09-05T09:17:55.000Z,54.1
2022-09-05T09:19:11.000Z,54.8
2022-09-05T09:20:27.000Z,55.1
2022-09-05T09:21:43.000Z,54.8
2022-09-05T09:22:59.000Z,54.6
2022-09-05T09:24:15.000Z,54.4
2022-09-05T09:25:32.000Z,53.8
2022-09-05T09:26:48.000Z,52.1
2022-09-05T09:28:04.000Z,51.9
2022-09-05T09:29:20.000Z,51.8
2022-09-05T09:30:35.000Z,51.5
2022-09-05T09:31:52.000Z,51.3
2022-09-05T09:33:08.000Z,50.5
2022-09-05T09:34:24.000Z,50.4
2022-09-05T09:35:40.000Z,49.9
2022-09-05T09:36:56.000Z,50.8
2022-09-05T09:38:13.000Z,50.9
2022-09-05T09:39:29.000Z,50.5
2022-09-05T09:40:45.000Z,50.5
2022-09-05T09:42:01.000Z,49.9
2022-09-05T09:43:17.000Z,49.8
2022-09-05T09:44:34.000Z,48.5
2022-09-05T09:45:50.000Z,47.7
2022-09-05T09:47:05.000Z,47.8
2022-09-05T09:48:21.000Z,47.5
2022-09-05T09:49:37.000Z,46.9
2022-09-05T09:50:53.000Z,46.6
2022-09-05T09:52:10.000Z,46.5
2022-09-05T09:53:26.000Z,46.3
2022-09-05T09:54:42.000Z,46.4
2022-09-05T09:55:58.000Z,45.9
2022-09-05T09:57:14.000Z,46.2
2022-09-05T09:58:31.000Z,45.8
2022-09-05T09:59:47.000Z,45.7
2022-09-05T10:01:03.000Z,44.9
2022-09-05T10:02:19.000Z,44.6
2022-09-05T10:03:34.000Z,44.5
2022-09-05T10:04:51.000Z,43.8
2022-09-05T10:06:07.000Z,43.8
2022-09-05T10:07:23.000Z,43.5
2022-09-05T10:08:39.000Z,43.3
2022-09-05T10:09:55.000Z,42.9
2022-09-05T10:11:12.000Z,43.9
2022-09-05T10:12:28.000Z,44.1
2022-09-05T10:13:44.000Z,43.9
2022-09-05T10:15:00.000Z,43.9
2022-09-05T10:16:16.000Z,43.6
2022-09-05T10:17:32.000Z,43.3
2022-09-05T10:18:49.000Z,42.8
2022-09-05T10:20:04.000Z,42.5
2022-09-05T10:21:20.000Z,41.7
2022-09-05T10:22:36.000Z,41.2
2022-09-05T10:23:52.000Z,41.1
2022-09-05T10:25:09.000Z,41.4
2022-09-05T10:26:25.000Z,41.3
2022-09-05T10:27:41.000Z,40.7
2022-09-05T10:28:57.000Z,39.9
2022-09-05T10:30:13.000Z,40.9
2022-09-05T10:31:30.000Z,41
2022-09-05T10:32:46.000Z,41.7
2022-09-05T10:34:02.000Z,42
2022-09-05T10:35:18.000Z,41.2
2022-09-05T10:36:33.000Z,41
2022-09-05T10:37:49.000Z,40.9
2022-09-05T10:39:06.000Z,40.7
2022-09-05T10:40:22.000Z,40.3
2022-09-05T10:41:38.000Z,39.4
2022-09-05T10:42:54.000Z,39.4
2022-09-05T10:44:10.000Z,38.6
2022-09-05T10:45:27.000Z,38.4
2022-09-05T10:46:43.000Z,37.8
2022-09-05T10:47:59.000Z,38.4
2022-09-05T10:49:15.000Z,39
2022-09-05T10:50:31.000Z,38.6
2022-09-05T10:51:48.000Z,38.3
2022-09-05T10:53:03.000Z,38.4
2022-09-05T10:54:19.000Z,37.4
2022-09-05T10:55:35.000Z,37
2022-09-05T10:56:51.000Z,35.7
2022-09-05T10:58:07.000Z,34.5
2022-09-05T10:59:23.000Z,34.6
2022-09-05T11:00:39.000Z,34.3
2022-09-05T11:01:55.000Z,34.2
2022-09-05T11:03:11.000Z,34.4
2022-09-05T11:04:27.000Z,35.6
2022-09-05T11:05:44.000Z,35.3
2022-09-05T11:07:00.000Z,35
2022-09-05T11:08:16.000Z,34.7
2022-09-05T11:09:32.000Z,35.3
2022-09-05T11:10:48.000Z,35
2022-09-05T11:12:05.000Z,34.9
2022-09-05T11:13:21.000Z,34.5
2022-09-05T11:14:36.000Z,34.7
2022-09-05T11:15:52.000Z,34.7
2022-09-05T11:17:08.000Z,34.3
2022-09-05T11:18:25.000Z,34.1
2022-09-05T11:19:41.000Z,33.6
2022-09-05T11:20:57.000Z,33.5
2022-09-05T11:22:13.000Z,33.2
2022-09-05T11:23:29.000Z,33.5
2022-09-05T11:24:46.000Z,33.2
2022-09-05T11:26:02.000Z,32.1
2022-09-05T11:27:18.000Z,33
2022-09-05T11:28:34.000Z,34.1
2022-09-05T11:29:50.000Z,33.5
2022-09-05T11:31:06.000Z,33.1
2022-09-05T11:32:22.000Z,32.2
2022-09-05T11:33:38.000Z,31.7
2022-09-05T11:34:54.000Z,30.9
2022-09-05T11:36:10.000Z,29.7
2022-09-05T11:37:26.000Z,28.8
2022-09-05T11:38:43.000Z,29.1
2022-09-05T11:39:59.000Z,29.1
2022-09-05T11:41:15.000Z,29.1
2022-09-05T11:42:31.000Z,29
2022-09-05T11:43:47.000Z,28.5
2022-09-05T11:45:04.000Z,28
2022-09-05T11:46:20.000Z,27.8
2022-09-05T11:47:35.000Z,28.8
2022-09-05T11:48:51.000Z,30.1
2022-09-05T11:50:07.000Z,30.3
2022-09-05T11:51:24.000Z,29.6
2022-09-05T11:52:40.000Z,29.4
2022-09-05T11:53:56.000Z,29.6
2022-09-05T11:55:12.000Z,28.8
2022-09-05T11:56:28.000Z,28
2022-09-05T11:57:45.000Z,27.6
2022-09-05T11:59:01.000Z,27.7
2022-09-05T12:00:17.000Z,27.5
2022-09-05T12:01:33.000Z,27.2
2022-09-05T12:02:49.000Z,26.6
2022-09-05T12:04:04.000Z,27
2022-09-05T12:05:21.000Z,27
2022-09-05T12:06:37.000Z,27.4
2022-09-05T12:07:53.000Z,27.5
2022-09-05T12:09:09.000Z,27.9
2022-09-05T12:10:25.000Z,27.3
2022-09-05T12:11:42.000Z,28.2
2022-09-05T12:12:58.000Z,28.2
2022-09-05T12:14:14.000Z,28.2
2022-09-05T12:15:30.000Z,28.6
2022-09-05T12:16:46.000Z,28.6
2022-09-05T12:18:03.000Z,28.3
2022-09-05T12:19:19.000Z,28.6
2022-09-05T12:20:34.000Z,28.4
2022-09-05T12:21:50.000Z,28.2
2022-09-05T12:23:06.000Z,28.2
2022-09-05T12:24:23.000Z,28.4
2022-09-05T12:25:39.000Z,28.6
2022-09-05T12:26:55.000Z,28.9
2022-09-05T12:28:11.000Z,28.7
2022-09-05T12:29:27.000Z,29.9
2022-09-05T12:30:43.000Z,29.7
2022-09-05T12:32:00.000Z,30
2022-09-05T12:33:16.000Z,30.2
2022-09-05T12:34:32.000Z,30.5
2022-09-05T12:35:48.000Z,31.7
2022-09-05T12:37:03.000Z,32.1
2022-09-05T12:38:20.000Z,32
2022-09-05T12:39:36.000Z,32
2022-09-05T12:40:52.000Z,31.4
2022-09-05T12:42:08.000Z,30.1
2022-09-05T12:43:24.000Z,29.1
2022-09-05T12:44:41.000Z,28.6
2022-09-05T12:45:57.000Z,28.9
2022-09-05T12:47:13.000Z,30.2
2022-09-05T12:48:29.000Z,31.3
2022-09-05T12:49:45.000Z,32.3
2022-09-05T12:51:02.000Z,32
2022-09-05T12:52:18.000Z,31.1
2022-09-05T12:53:33.000Z,31.1
2022-09-05T12:54:49.000Z,31.2
2022-09-05T12:56:05.000Z,30.7
2022-09-05T12:57:21.000Z,30.3
2022-09-05T12:58:38.000Z,30
2022-09-05T12:59:54.000Z,29.6
2022-09-05T13:01:10.000Z,29.7
2022-09-05T13:02:26.000Z,28.7
2022-09-05T13:03:42.000Z,29.1
2022-09-05T13:04:59.000Z,29.9
2022-09-05T13:06:15.000Z,30.1
2022-09-05T13:07:31.000Z,29.6
2022-09-05T13:08:47.000Z,29.1
2022-09-05T13:10:02.000Z,28.3
2022-09-05T13:11:19.000Z,28.3
2022-09-05T13:12:35.000Z,28.3
2022-09-05T13:13:51.000Z,27.9
2022-09-05T13:15:07.000Z,27.8
2022-09-05T13:16:23.000Z,27.6
2022-09-05T13:17:40.000Z,27.3
2022-09-05T13:18:56.000Z,27.4
2022-09-05T13:20:12.000Z,27.6
2022-09-05T13:21:28.000Z,27.1
2022-09-05T13:22:44.000Z,26.4
2022-09-05T13:24:00.000Z,26.3
2022-09-05T13:25:17.000Z,26.5
2022-09-05T13:26:32.000Z,26.7
2022-09-05T13:27:48.000Z,27.1
2022-09-05T13:29:04.000Z,27.2
2022-09-05T13:30:20.000Z,27.7
2022-09-05T13:31:37.000Z,27.4
2022-09-05T13:32:53.000Z,27.2
2022-09-05T13:34:09.000Z,26.6
2022-09-05T13:35:25.000Z,27.9
2022-09-05T13:36:41.000Z,28.8
2022-09-05T13:37:58.000Z,29.1
2022-09-05T13:39:14.000Z,28.4
2022-09-05T13:40:30.000Z,29.3
2022-09-05T13:41:46.000Z,30.3
2022-09-05T13:43:01.000Z,30.3
2022-09-05T13:44:18.000Z,29
2022-09-05T13:45:34.000Z,27.4
2022-09-05T13:46:50.000Z,26.7
2022-09-05T13:48:06.000Z,26.7
2022-09-05T13:49:22.000Z,27.2
2022-09-05T13:50:39.000Z,27.8
2022-09-05T13:51:55.000Z,28.5
2022-09-05T13:53:11.000Z,28.9
2022-09-05T13:54:27.000Z,28.7
2022-09-05T13:55:43.000Z,28.3
2022-09-05T13:56:59.000Z,27.6
2022-09-05T13:58:16.000Z,26.6
2022-09-05T13:59:31.000Z,26.1
2022-09-05T14:00:47.000Z,26.8
2022-09-05T14:02:03.000Z,27.2
2022-09-05T14:03:19.000Z,26.7
2022-09-05T14:04:36.000Z,26.9
2022-09-05T14:05:52.000Z,26.6
2022-09-05T14:07:08.000Z,26.6
2022-09-05T14:08:24.000Z,26.6
2022-09-05T14:09:40.000Z,26.9
2022-09-05T14:10:57.000Z,26.7
2022-09-05T14:12:13.000Z,26.7
2022-09-05T14:13:29.000Z,26.6
2022-09-05T14:14:45.000Z,26.6
2022-09-05T14:16:00.000Z,26.6
2022-09-05T14:17:17.000Z,26.1
2022-09-05T14:18:33.000Z,25.9
2022-09-05T14:19:49.000Z,25.8
2022-09-05T14:21:05.000Z,25.8
2022-09-05T14:22:21.000Z,25.6
2022-09-05T14:23:37.000Z,25.6
2022-09-05T14:24:54.000Z,25.8
2022-09-05T14:26:10.000Z,25.6
2022-09-05T14:27:26.000Z,25.4
2022-09-05T14:28:42.000Z,25.4
2022-09-05T14:29:58.000Z,25.9
2022-09-05T14:31:15.000Z,26
2022-09-05T14:32:30.000Z,26.6
2022-09-05T14:33:46.000Z,26.2
2022-09-05T14:35:02.000Z,25.8
2022-09-05T14:36:18.000Z,25.2
2022-09-05T14:37:35.000Z,25
2022-09-05T14:38:51.000Z,25
2022-09-05T14:40:07.000Z,24.6
2022-09-05T14:41:23.000Z,24.6
2022-09-05T14:42:39.000Z,24.6
2022-09-05T14:43:56.000Z,24.6
2022-09-05T14:45:12.000Z,24.4
2022-09-05T14:46:28.000Z,24.4
2022-09-05T14:47:44.000Z,25
2022-09-05T14:48:59.000Z,24.9
2022-09-05T14:50:16.000Z,25.1
2022-09-05T14:51:32.000Z,25.2
2022-09-05T14:52:48.000Z,25.1
2022-09-05T14:54:04.000Z,25.3
2022-09-05T14:55:20.000Z,25.7
2022-09-05T14:56:36.000Z,26.1
2022-09-05T14:57:53.000Z,26
2022-09-05T14:59:09.000Z,25.5
2022-09-05T15:00:25.000Z,24.7
2022-09-05T15:01:41.000Z,24.8
2022-09-05T15:02:57.000Z,25.3
2022-09-05T15:04:14.000Z,25.1
2022-09-05T15:05:29.000Z,25.2
2022-09-05T15:06:45.000Z,25.3
2022-09-05T15:08:01.000Z,25.1
2022-09-05T15:09:17.000Z,25.2
2022-09-05T15:10:34.000Z,25.4
2022-09-05T15:11:50.000Z,26
2022-09-05T15:13:05.000Z,26.6
2022-09-05T15:14:21.000Z,26.7
2022-09-05T15:15:37.000Z,26.1
2022-09-05T15:16:54.000Z,25.8
2022-09-05T15:18:10.000Z,25.8
2022-09-05T15:19:26.000Z,26.6
2022-09-05T15:20:42.000Z,27.5
2022-09-05T15:21:58.000Z,28.1
2022-09-05T15:23:14.000Z,28.3
2022-09-05T15:24:31.000Z,27.8
2022-09-05T15:25:47.000Z,27.6
2022-09-05T15:27:03.000Z,27.4
2022-09-05T15:28:19.000Z,26.9
2022-09-05T15:29:34.000Z,26.6
2022-09-05T15:30:51.000Z,26.3
2022-09-05T15:32:07.000Z,26
2022-09-05T15:33:23.000Z,25.5
2022-09-05T15:34:39.000Z,25
2022-09-05T15:35:55.000Z,25.4
2022-09-05T15:37:12.000Z,25.3
2022-09-05T15:38:28.000Z,25.8
2022-09-05T15:39:44.000Z,26.3
2022-09-05T15:41:00.000Z,27.6
2022-09-05T15:42:16.000Z,28
2022-09-05T15:43:33.000Z,27.9
2022-09-05T15:44:49.000Z,27.2
2022-09-05T15:46:04.000Z,26.9
2022-09-05T15:47:20.000Z,27.2
2022-09-05T15:48:36.000Z,27
2022-09-05T15:49:52.000Z,26.7
2022-09-05T15:51:09.000Z,26.5
2022-09-05T15:52:25.000Z,26.5
2022-09-05T15:53:41.000Z,26.2
2022-09-05T15:54:57.000Z,26.4
2022-09-05T15:56:13.000Z,26.3
2022-09-05T15:57:30.000Z,26.4
2022-09-05T15:58:46.000Z,26.9
2022-09-05T16:00:02.000Z,27.2
2022-09-05T16:01:18.000Z,26.9
2022-09-05T16:02:33.000Z,26.7
2022-09-05T16:03:50.000Z,26.4
2022-09-05T16:05:06.000Z,26.5
2022-09-05T16:06:22.000Z,26.4
2022-09-05T16:07:38.000Z,26.5
2022-09-05T16:08:54.000Z,26.1
2022-09-05T16:10:11.000Z,26.3
2022-09-05T16:11:27.000Z,26.6
2022-09-05T16:12:43.000Z,26.8
2022-09-05T16:13:59.000Z,26.8
2022-09-05T16:15:15.000Z,26.9
2022-09-05T16:16:31.000Z,27.3
2022-09-05T16:17:48.000Z,27.5
2022-09-05T16:19:03.000Z,27.4
2022-09-05T16:20:19.000Z,27.4
2022-09-05T16:21:35.000Z,27.3
2022-09-05T16:22:51.000Z,27.2
2022-09-05T16:24:08.000Z,27.7
2022-09-05T16:25:24.000Z,28.1
2022-09-05T16:26:40.000Z,28.6
2022-09-05T16:27:56.000Z,29.4
2022-09-05T16:29:12.000Z,29.6
2022-09-05T16:30:29.000Z,29.5
2022-09-05T16:31:45.000Z,29.9
2022-09-05T16:33:01.000Z,30.2
2022-09-05T16:34:17.000Z,30.5
2022-09-05T16:35:32.000Z,30.6
2022-09-05T16:36:49.000Z,30.9
2022-09-05T16:38:05.000Z,31.1
2022-09-05T16:39:21.000Z,31.1
2022-09-05T16:40:37.000Z,31.2
2022-09-05T16:41:53.000Z,31.1
2022-09-05T16:43:09.000Z,31
2022-09-05T16:44:26.000Z,31.5
2022-09-05T16:45:42.000Z,31.3
2022-09-05T16:46:58.000Z,31.6
2022-09-05T16:48:14.000Z,31.7
2022-09-05T16:49:30.000Z,31.8
2022-09-05T16:50:47.000Z,31.4
2022-09-05T16:52:02.000Z,31.6
2022-09-05T16:53:18.000Z,31.1
2022-09-05T16:54:34.000Z,30.9
2022-09-05T16:55:50.000Z,30.8
2022-09-05T16:57:07.000Z,30.7
2022-09-05T16:58:23.000Z,30.7
2022-09-05T16:59:39.000Z,30.7
2022-09-05T17:00:55.000Z,31.1